sensor_id;sensor_type;location;lat;lon;timestamp;P1;durP1;ratioP1;P2;durP2;ratioP2
70806;SDS011;58882;52.170;5.386;2023-04-25T00:01:18;11.63;;;2.60;;
70806;SDS011;58882;52.170;5.386;2023-04-25T00:03:48;14.82;;;2.70;;
70806;SDS011;58882;52.170;5.386;2023-04-25T00:06:15;15.25;;;2.33;;
70806;SDS011;58882;52.170;5.386;2023-04-25T00:08:43;16.25;;;2.90;;
70806;SDS011;58882;52.170;5.386;2023-04-25T00:11:10;16.33;;;2.55;;
70806;SDS011;58882;52.170;5.386;2023-04-25T00:13:37;13.32;;;2.70;;
70806;SDS011;58882;52.170;5.386;2023-04-25T00:16:07;13.93;;;2.92;;
70806;SDS011;58882;52.170;5.386;2023-04-25T00:18:34;15.68;;;3.00;;
70806;SDS011;58882;52.170;5.386;2023-04-25T00:21:02;13.60;;;2.63;;
70806;SDS011;58882;52.170;5.386;2023-04-25T00:23:29;13.93;;;2.63;;
70806;SDS011;58882;52.170;5.386;2023-04-25T00:25:56;22.13;;;3.60;;
70806;SDS011;58882;52.170;5.386;2023-04-25T00:28:22;16.23;;;3.05;;
70806;SDS011;58882;52.170;5.386;2023-04-25T00:30:49;13.80;;;2.75;;
70806;SDS011;58882;52.170;5.386;2023-04-25T00:33:16;12.05;;;2.85;;
70806;SDS011;58882;52.170;5.386;2023-04-25T00:35:43;12.90;;;2.63;;
70806;SDS011;58882;52.170;5.386;2023-04-25T00:38:10;16.00;;;2.67;;
70806;SDS011;58882;52.170;5.386;2023-04-25T00:40:37;16.90;;;3.05;;
70806;SDS011;58882;52.170;5.386;2023-04-25T00:43:04;11.55;;;2.80;;
70806;SDS011;58882;52.170;5.386;2023-04-25T00:45:30;15.90;;;3.25;;
70806;SDS011;58882;52.170;5.386;2023-04-25T00:47:57;15.40;;;2.90;;
70806;SDS011;58882;52.170;5.386;2023-04-25T00:50:24;16.02;;;2.80;;
70806;SDS011;58882;52.170;5.386;2023-04-25T00:52:51;12.02;;;2.40;;
70806;SDS011;58882;52.170;5.386;2023-04-25T00:55:18;15.95;;;2.90;;
70806;SDS011;58882;52.170;5.386;2023-04-25T00:57:46;14.45;;;2.53;;
70806;SDS011;58882;52.170;5.386;2023-04-25T01:00:13;11.57;;;2.38;;
70806;SDS011;58882;52.170;5.386;2023-04-25T01:02:42;12.68;;;2.85;;
70806;SDS011;58882;52.170;5.386;2023-04-25T01:05:11;11.48;;;2.33;;
70806;SDS011;58882;52.170;5.386;2023-04-25T01:07:38;8.07;;;2.20;;
70806;SDS011;58882;52.170;5.386;2023-04-25T01:10:05;11.82;;;2.97;;
70806;SDS011;58882;52.170;5.386;2023-04-25T01:12:33;12.75;;;2.50;;
70806;SDS011;58882;52.170;5.386;2023-04-25T01:15:00;11.93;;;2.40;;
70806;SDS011;58882;52.170;5.386;2023-04-25T01:17:27;11.77;;;2.55;;
70806;SDS011;58882;52.170;5.386;2023-04-25T01:19:55;13.32;;;2.67;;
70806;SDS011;58882;52.170;5.386;2023-04-25T01:22:22;9.00;;;2.50;;
70806;SDS011;58882;52.170;5.386;2023-04-25T01:24:50;13.10;;;2.33;;
70806;SDS011;58882;52.170;5.386;2023-04-25T01:27:17;12.05;;;2.55;;
70806;SDS011;58882;52.170;5.386;2023-04-25T01:29:44;16.45;;;3.33;;
70806;SDS011;58882;52.170;5.386;2023-04-25T01:32:12;13.00;;;2.42;;
70806;SDS011;58882;52.170;5.386;2023-04-25T01:34:40;12.95;;;2.47;;
70806;SDS011;58882;52.170;5.386;2023-04-25T01:37:07;9.07;;;2.35;;
70806;SDS011;58882;52.170;5.386;2023-04-25T01:39:33;12.95;;;2.60;;
70806;SDS011;58882;52.170;5.386;2023-04-25T01:42:00;14.02;;;2.53;;
70806;SDS011;58882;52.170;5.386;2023-04-25T01:44:29;13.95;;;2.80;;
70806;SDS011;58882;52.170;5.386;2023-04-25T01:46:56;9.20;;;2.20;;
70806;SDS011;58882;52.170;5.386;2023-04-25T01:49:22;11.93;;;2.58;;
70806;SDS011;58882;52.170;5.386;2023-04-25T01:51:49;14.30;;;2.50;;
70806;SDS011;58882;52.170;5.386;2023-04-25T01:54:16;13.02;;;2.38;;
70806;SDS011;58882;52.170;5.386;2023-04-25T01:56:49;14.00;;;2.55;;
70806;SDS011;58882;52.170;5.386;2023-04-25T01:59:18;11.55;;;2.67;;
70806;SDS011;58882;52.170;5.386;2023-04-25T02:02:10;13.98;;;2.35;;
70806;SDS011;58882;52.170;5.386;2023-04-25T02:04:37;12.55;;;2.63;;
70806;SDS011;58882;52.170;5.386;2023-04-25T02:07:05;11.38;;;2.70;;
70806;SDS011;58882;52.170;5.386;2023-04-25T02:09:43;12.15;;;2.70;;
70806;SDS011;58882;52.170;5.386;2023-04-25T02:12:11;14.20;;;2.40;;
70806;SDS011;58882;52.170;5.386;2023-04-25T02:14:58;8.43;;;2.10;;
70806;SDS011;58882;52.170;5.386;2023-04-25T02:17:38;13.60;;;2.55;;
70806;SDS011;58882;52.170;5.386;2023-04-25T02:20:05;15.60;;;2.70;;
70806;SDS011;58882;52.170;5.386;2023-04-25T02:22:33;15.60;;;2.65;;
70806;SDS011;58882;52.170;5.386;2023-04-25T02:25:04;11.88;;;2.45;;
70806;SDS011;58882;52.170;5.386;2023-04-25T02:27:31;12.48;;;2.20;;
70806;SDS011;58882;52.170;5.386;2023-04-25T02:29:58;11.60;;;2.40;;
70806;SDS011;58882;52.170;5.386;2023-04-25T02:32:25;8.73;;;2.20;;
70806;SDS011;58882;52.170;5.386;2023-04-25T02:34:53;10.70;;;2.22;;
70806;SDS011;58882;52.170;5.386;2023-04-25T02:37:20;13.60;;;2.33;;
70806;SDS011;58882;52.170;5.386;2023-04-25T02:39:47;9.60;;;2.50;;
70806;SDS011;58882;52.170;5.386;2023-04-25T02:42:13;10.25;;;2.53;;
70806;SDS011;58882;52.170;5.386;2023-04-25T02:44:40;12.85;;;2.38;;
70806;SDS011;58882;52.170;5.386;2023-04-25T02:47:07;10.07;;;2.10;;
70806;SDS011;58882;52.170;5.386;2023-04-25T02:49:34;10.65;;;2.40;;
70806;SDS011;58882;52.170;5.386;2023-04-25T02:52:01;11.02;;;2.25;;
70806;SDS011;58882;52.170;5.386;2023-04-25T02:54:28;11.35;;;2.17;;
70806;SDS011;58882;52.170;5.386;2023-04-25T02:56:56;12.35;;;2.50;;
70806;SDS011;58882;52.170;5.386;2023-04-25T02:59:27;13.27;;;2.42;;
70806;SDS011;58882;52.170;5.386;2023-04-25T03:01:54;13.55;;;2.30;;
70806;SDS011;58882;52.170;5.386;2023-04-25T03:04:21;14.05;;;2.65;;
70806;SDS011;58882;52.170;5.386;2023-04-25T03:06:50;11.57;;;2.40;;
70806;SDS011;58882;52.170;5.386;2023-04-25T03:09:19;11.88;;;2.33;;
70806;SDS011;58882;52.170;5.386;2023-04-25T03:11:46;11.90;;;2.50;;
70806;SDS011;58882;52.170;5.386;2023-04-25T03:14:13;13.27;;;2.60;;
70806;SDS011;58882;52.170;5.386;2023-04-25T03:16:40;11.80;;;2.30;;
70806;SDS011;58882;52.170;5.386;2023-04-25T03:19:07;9.30;;;2.35;;
70806;SDS011;58882;52.170;5.386;2023-04-25T03:21:34;11.43;;;2.63;;
70806;SDS011;58882;52.170;5.386;2023-04-25T03:24:02;11.20;;;2.35;;
70806;SDS011;58882;52.170;5.386;2023-04-25T03:26:30;10.45;;;2.67;;
70806;SDS011;58882;52.170;5.386;2023-04-25T03:28:58;13.88;;;2.30;;
70806;SDS011;58882;52.170;5.386;2023-04-25T03:31:25;14.80;;;2.50;;
70806;SDS011;58882;52.170;5.386;2023-04-25T03:33:52;11.73;;;2.33;;
70806;SDS011;58882;52.170;5.386;2023-04-25T03:38:48;13.15;;;2.65;;
70806;SDS011;58882;52.170;5.386;2023-04-25T03:41:16;17.08;;;2.83;;
70806;SDS011;58882;52.170;5.386;2023-04-25T03:43:46;10.98;;;2.70;;
70806;SDS011;58882;52.170;5.386;2023-04-25T03:46:14;14.18;;;2.78;;
70806;SDS011;58882;52.170;5.386;2023-04-25T03:48:41;12.88;;;2.85;;
70806;SDS011;58882;52.170;5.386;2023-04-25T03:51:12;13.93;;;2.70;;
70806;SDS011;58882;52.170;5.386;2023-04-25T03:53:42;9.30;;;2.60;;
70806;SDS011;58882;52.170;5.386;2023-04-25T03:56:18;14.38;;;2.15;;
70806;SDS011;58882;52.170;5.386;2023-04-25T04:01:15;16.45;;;2.38;;
70806;SDS011;58882;52.170;5.386;2023-04-25T04:03:42;11.32;;;2.33;;
70806;SDS011;58882;52.170;5.386;2023-04-25T04:06:10;9.77;;;2.40;;
70806;SDS011;58882;52.170;5.386;2023-04-25T04:08:42;12.60;;;2.40;;
70806;SDS011;58882;52.170;5.386;2023-04-25T04:11:10;12.55;;;2.10;;
70806;SDS011;58882;52.170;5.386;2023-04-25T04:13:37;11.82;;;2.05;;
70806;SDS011;58882;52.170;5.386;2023-04-25T04:16:05;9.55;;;2.15;;
70806;SDS011;58882;52.170;5.386;2023-04-25T04:18:32;7.60;;;1.85;;
70806;SDS011;58882;52.170;5.386;2023-04-25T04:21:00;9.27;;;2.00;;
70806;SDS011;58882;52.170;5.386;2023-04-25T04:23:30;8.25;;;1.60;;
70806;SDS011;58882;52.170;5.386;2023-04-25T04:25:58;9.80;;;2.03;;
70806;SDS011;58882;52.170;5.386;2023-04-25T04:28:25;9.98;;;1.55;;
70806;SDS011;58882;52.170;5.386;2023-04-25T04:31:13;7.68;;;1.60;;
70806;SDS011;58882;52.170;5.386;2023-04-25T04:33:43;9.52;;;1.92;;
70806;SDS011;58882;52.170;5.386;2023-04-25T04:36:11;8.75;;;1.70;;
70806;SDS011;58882;52.170;5.386;2023-04-25T04:38:38;11.40;;;1.60;;
70806;SDS011;58882;52.170;5.386;2023-04-25T04:41:09;4.75;;;1.40;;
70806;SDS011;58882;52.170;5.386;2023-04-25T04:43:55;8.77;;;1.70;;
70806;SDS011;58882;52.170;5.386;2023-04-25T04:46:54;8.95;;;1.50;;
70806;SDS011;58882;52.170;5.386;2023-04-25T04:49:51;7.78;;;1.30;;
70806;SDS011;58882;52.170;5.386;2023-04-25T04:52:40;7.57;;;1.63;;
70806;SDS011;58882;52.170;5.386;2023-04-25T04:55:27;4.43;;;1.40;;
70806;SDS011;58882;52.170;5.386;2023-04-25T04:58:26;9.02;;;1.25;;
70806;SDS011;58882;52.170;5.386;2023-04-25T05:01:12;6.20;;;1.20;;
70806;SDS011;58882;52.170;5.386;2023-04-25T05:03:54;5.32;;;1.30;;
70806;SDS011;58882;52.170;5.386;2023-04-25T05:06:57;7.90;;;1.65;;
70806;SDS011;58882;52.170;5.386;2023-04-25T05:09:30;6.88;;;1.58;;
70806;SDS011;58882;52.170;5.386;2023-04-25T05:12:29;7.80;;;1.70;;
70806;SDS011;58882;52.170;5.386;2023-04-25T05:15:17;7.03;;;1.48;;
70806;SDS011;58882;52.170;5.386;2023-04-25T05:20:46;7.32;;;1.33;;
70806;SDS011;58882;52.170;5.386;2023-04-25T05:23:13;6.85;;;1.55;;
70806;SDS011;58882;52.170;5.386;2023-04-25T05:25:50;5.93;;;1.65;;
70806;SDS011;58882;52.170;5.386;2023-04-25T05:28:30;6.90;;;1.20;;
70806;SDS011;58882;52.170;5.386;2023-04-25T05:31:16;7.00;;;1.40;;
70806;SDS011;58882;52.170;5.386;2023-04-25T05:33:57;8.38;;;1.50;;
70806;SDS011;58882;52.170;5.386;2023-04-25T05:36:32;3.83;;;1.30;;
70806;SDS011;58882;52.170;5.386;2023-04-25T05:38:59;6.93;;;1.50;;
70806;SDS011;58882;52.170;5.386;2023-04-25T05:41:55;8.20;;;1.40;;
70806;SDS011;58882;52.170;5.386;2023-04-25T05:44:41;6.07;;;1.50;;
70806;SDS011;58882;52.170;5.386;2023-04-25T05:47:28;6.75;;;1.55;;
70806;SDS011;58882;52.170;5.386;2023-04-25T05:50:05;8.07;;;1.33;;
70806;SDS011;58882;52.170;5.386;2023-04-25T05:52:53;6.07;;;1.45;;
70806;SDS011;58882;52.170;5.386;2023-04-25T05:55:28;7.43;;;1.35;;
70806;SDS011;58882;52.170;5.386;2023-04-25T05:57:57;7.40;;;1.70;;
70806;SDS011;58882;52.170;5.386;2023-04-25T06:00:23;5.93;;;1.48;;
70806;SDS011;58882;52.170;5.386;2023-04-25T06:02:50;8.07;;;1.60;;
70806;SDS011;58882;52.170;5.386;2023-04-25T06:05:18;7.15;;;1.50;;
70806;SDS011;58882;52.170;5.386;2023-04-25T06:07:46;7.35;;;1.60;;
70806;SDS011;58882;52.170;5.386;2023-04-25T06:10:13;5.80;;;1.50;;
70806;SDS011;58882;52.170;5.386;2023-04-25T06:12:41;5.78;;;1.60;;
70806;SDS011;58882;52.170;5.386;2023-04-25T06:15:08;8.80;;;1.70;;
70806;SDS011;58882;52.170;5.386;2023-04-25T06:17:53;4.60;;;1.35;;
70806;SDS011;58882;52.170;5.386;2023-04-25T06:20:21;9.20;;;1.40;;
70806;SDS011;58882;52.170;5.386;2023-04-25T06:22:51;5.97;;;1.45;;
70806;SDS011;58882;52.170;5.386;2023-04-25T06:25:22;11.05;;;1.70;;
70806;SDS011;58882;52.170;5.386;2023-04-25T06:27:49;6.78;;;1.50;;
70806;SDS011;58882;52.170;5.386;2023-04-25T06:30:16;8.73;;;1.40;;
70806;SDS011;58882;52.170;5.386;2023-04-25T06:32:50;7.55;;;1.75;;
70806;SDS011;58882;52.170;5.386;2023-04-25T06:35:17;10.15;;;1.42;;
70806;SDS011;58882;52.170;5.386;2023-04-25T06:37:44;6.30;;;1.30;;
70806;SDS011;58882;52.170;5.386;2023-04-25T06:40:11;7.78;;;1.58;;
70806;SDS011;58882;52.170;5.386;2023-04-25T06:42:38;14.68;;;1.95;;
70806;SDS011;58882;52.170;5.386;2023-04-25T06:45:24;8.35;;;1.73;;
70806;SDS011;58882;52.170;5.386;2023-04-25T06:47:52;11.27;;;1.50;;
70806;SDS011;58882;52.170;5.386;2023-04-25T06:50:19;7.57;;;1.55;;
70806;SDS011;58882;52.170;5.386;2023-04-25T06:52:46;7.28;;;1.80;;
70806;SDS011;58882;52.170;5.386;2023-04-25T06:55:12;8.93;;;1.55;;
70806;SDS011;58882;52.170;5.386;2023-04-25T06:57:56;7.70;;;1.40;;
70806;SDS011;58882;52.170;5.386;2023-04-25T07:00:43;6.10;;;1.30;;
70806;SDS011;58882;52.170;5.386;2023-04-25T07:03:10;6.28;;;1.50;;
70806;SDS011;58882;52.170;5.386;2023-04-25T07:05:38;11.02;;;1.50;;
70806;SDS011;58882;52.170;5.386;2023-04-25T07:08:05;7.93;;;1.50;;
70806;SDS011;58882;52.170;5.386;2023-04-25T07:10:32;8.50;;;1.40;;
70806;SDS011;58882;52.170;5.386;2023-04-25T07:12:58;7.43;;;1.70;;
70806;SDS011;58882;52.170;5.386;2023-04-25T07:15:25;6.95;;;1.77;;
70806;SDS011;58882;52.170;5.386;2023-04-25T07:17:52;7.63;;;1.63;;
70806;SDS011;58882;52.170;5.386;2023-04-25T07:20:19;5.80;;;1.30;;
70806;SDS011;58882;52.170;5.386;2023-04-25T07:22:47;7.07;;;1.50;;
70806;SDS011;58882;52.170;5.386;2023-04-25T07:25:14;6.18;;;1.45;;
70806;SDS011;58882;52.170;5.386;2023-04-25T07:27:41;6.85;;;1.20;;
70806;SDS011;58882;52.170;5.386;2023-04-25T07:30:12;7.88;;;1.77;;
70806;SDS011;58882;52.170;5.386;2023-04-25T07:32:39;5.53;;;1.52;;
70806;SDS011;58882;52.170;5.386;2023-04-25T07:35:06;7.25;;;1.45;;
70806;SDS011;58882;52.170;5.386;2023-04-25T07:37:34;7.07;;;1.38;;
70806;SDS011;58882;52.170;5.386;2023-04-25T07:40:08;7.00;;;1.27;;
70806;SDS011;58882;52.170;5.386;2023-04-25T07:42:40;8.70;;;1.77;;
70806;SDS011;58882;52.170;5.386;2023-04-25T07:45:08;7.30;;;1.30;;
70806;SDS011;58882;52.170;5.386;2023-04-25T07:47:37;10.48;;;1.40;;
70806;SDS011;58882;52.170;5.386;2023-04-25T07:50:05;7.22;;;1.25;;
70806;SDS011;58882;52.170;5.386;2023-04-25T07:52:32;6.68;;;1.30;;
70806;SDS011;58882;52.170;5.386;2023-04-25T07:55:07;5.68;;;1.10;;
70806;SDS011;58882;52.170;5.386;2023-04-25T07:57:47;9.00;;;1.27;;
70806;SDS011;58882;52.170;5.386;2023-04-25T08:00:14;7.55;;;1.10;;
70806;SDS011;58882;52.170;5.386;2023-04-25T08:02:48;5.43;;;1.10;;
70806;SDS011;58882;52.170;5.386;2023-04-25T08:05:17;7.38;;;1.30;;
70806;SDS011;58882;52.170;5.386;2023-04-25T08:07:53;7.43;;;1.42;;
70806;SDS011;58882;52.170;5.386;2023-04-25T08:10:20;6.68;;;1.15;;
70806;SDS011;58882;52.170;5.386;2023-04-25T08:12:47;6.78;;;1.33;;
70806;SDS011;58882;52.170;5.386;2023-04-25T08:15:14;8.23;;;1.30;;
70806;SDS011;58882;52.170;5.386;2023-04-25T08:17:42;5.93;;;1.23;;
70806;SDS011;58882;52.170;5.386;2023-04-25T08:20:11;7.80;;;1.40;;
70806;SDS011;58882;52.170;5.386;2023-04-25T08:22:38;5.85;;;0.90;;
70806;SDS011;58882;52.170;5.386;2023-04-25T08:25:24;5.60;;;1.02;;
70806;SDS011;58882;52.170;5.386;2023-04-25T08:27:52;6.53;;;1.15;;
70806;SDS011;58882;52.170;5.386;2023-04-25T08:30:21;5.80;;;1.20;;
70806;SDS011;58882;52.170;5.386;2023-04-25T08:32:50;6.35;;;1.08;;
70806;SDS011;58882;52.170;5.386;2023-04-25T08:35:46;7.10;;;1.30;;
70806;SDS011;58882;52.170;5.386;2023-04-25T08:38:14;3.70;;;1.02;;
70806;SDS011;58882;52.170;5.386;2023-04-25T08:40:41;5.10;;;0.90;;
70806;SDS011;58882;52.170;5.386;2023-04-25T08:43:14;6.40;;;1.08;;
70806;SDS011;58882;52.170;5.386;2023-04-25T08:45:44;6.57;;;1.17;;
70806;SDS011;58882;52.170;5.386;2023-04-25T08:48:20;4.85;;;0.98;;
70806;SDS011;58882;52.170;5.386;2023-04-25T08:50:53;5.07;;;1.10;;
70806;SDS011;58882;52.170;5.386;2023-04-25T08:53:25;7.70;;;1.30;;
70806;SDS011;58882;52.170;5.386;2023-04-25T08:55:54;10.68;;;1.38;;
70806;SDS011;58882;52.170;5.386;2023-04-25T08:58:23;6.05;;;0.98;;
70806;SDS011;58882;52.170;5.386;2023-04-25T09:00:51;6.75;;;1.20;;
70806;SDS011;58882;52.170;5.386;2023-04-25T09:03:21;4.50;;;1.00;;
70806;SDS011;58882;52.170;5.386;2023-04-25T09:05:49;6.25;;;1.40;;
70806;SDS011;58882;52.170;5.386;2023-04-25T09:08:17;4.95;;;1.17;;
70806;SDS011;58882;52.170;5.386;2023-04-25T09:10:44;7.88;;;1.27;;
70806;SDS011;58882;52.170;5.386;2023-04-25T09:13:12;4.38;;;1.00;;
70806;SDS011;58882;52.170;5.386;2023-04-25T09:16:02;5.93;;;1.35;;
70806;SDS011;58882;52.170;5.386;2023-04-25T09:18:58;7.28;;;1.20;;
70806;SDS011;58882;52.170;5.386;2023-04-25T09:21:26;4.95;;;1.13;;
70806;SDS011;58882;52.170;5.386;2023-04-25T09:23:54;8.45;;;1.33;;
70806;SDS011;58882;52.170;5.386;2023-04-25T09:26:21;4.07;;;0.98;;
70806;SDS011;58882;52.170;5.386;2023-04-25T09:28:49;3.67;;;1.05;;
70806;SDS011;58882;52.170;5.386;2023-04-25T09:31:34;6.07;;;1.30;;
70806;SDS011;58882;52.170;5.386;2023-04-25T09:34:03;4.60;;;1.00;;
70806;SDS011;58882;52.170;5.386;2023-04-25T09:36:40;6.13;;;0.95;;
70806;SDS011;58882;52.170;5.386;2023-04-25T09:39:14;6.90;;;1.10;;
70806;SDS011;58882;52.170;5.386;2023-04-25T09:41:53;3.90;;;1.00;;
70806;SDS011;58882;52.170;5.386;2023-04-25T09:44:24;5.15;;;1.08;;
70806;SDS011;58882;52.170;5.386;2023-04-25T09:46:52;5.97;;;1.33;;
70806;SDS011;58882;52.170;5.386;2023-04-25T09:49:23;4.07;;;0.85;;
70806;SDS011;58882;52.170;5.386;2023-04-25T09:52:21;6.13;;;1.17;;
70806;SDS011;58882;52.170;5.386;2023-04-25T09:55:11;7.57;;;0.90;;
70806;SDS011;58882;52.170;5.386;2023-04-25T09:57:38;4.20;;;0.82;;
70806;SDS011;58882;52.170;5.386;2023-04-25T10:00:06;3.47;;;1.00;;
70806;SDS011;58882;52.170;5.386;2023-04-25T10:02:42;4.82;;;0.90;;
70806;SDS011;58882;52.170;5.386;2023-04-25T10:05:29;5.50;;;1.00;;
70806;SDS011;58882;52.170;5.386;2023-04-25T10:07:59;7.03;;;1.10;;
70806;SDS011;58882;52.170;5.386;2023-04-25T10:10:30;5.68;;;1.00;;
70806;SDS011;58882;52.170;5.386;2023-04-25T10:13:03;5.35;;;1.00;;
70806;SDS011;58882;52.170;5.386;2023-04-25T10:15:32;4.88;;;0.93;;
70806;SDS011;58882;52.170;5.386;2023-04-25T10:18:05;4.40;;;0.93;;
70806;SDS011;58882;52.170;5.386;2023-04-25T10:20:32;4.68;;;0.90;;
70806;SDS011;58882;52.170;5.386;2023-04-25T10:23:07;5.70;;;1.08;;
70806;SDS011;58882;52.170;5.386;2023-04-25T10:25:39;3.13;;;0.80;;
70806;SDS011;58882;52.170;5.386;2023-04-25T10:28:07;5.43;;;1.25;;
70806;SDS011;58882;52.170;5.386;2023-04-25T10:30:34;5.53;;;0.95;;
70806;SDS011;58882;52.170;5.386;2023-04-25T10:33:01;3.97;;;0.90;;
70806;SDS011;58882;52.170;5.386;2023-04-25T10:35:28;3.88;;;0.80;;
70806;SDS011;58882;52.170;5.386;2023-04-25T10:40:33;4.10;;;1.02;;
70806;SDS011;58882;52.170;5.386;2023-04-25T10:46:01;5.10;;;1.00;;
70806;SDS011;58882;52.170;5.386;2023-04-25T10:48:29;4.40;;;1.00;;
70806;SDS011;58882;52.170;5.386;2023-04-25T10:53:33;4.63;;;0.90;;
70806;SDS011;58882;52.170;5.386;2023-04-25T10:56:08;4.70;;;0.88;;
70806;SDS011;58882;52.170;5.386;2023-04-25T10:58:44;3.95;;;1.10;;
70806;SDS011;58882;52.170;5.386;2023-04-25T11:01:15;3.38;;;0.90;;
70806;SDS011;58882;52.170;5.386;2023-04-25T11:03:46;4.38;;;1.00;;
70806;SDS011;58882;52.170;5.386;2023-04-25T11:08:50;10.30;;;1.23;;
70806;SDS011;58882;52.170;5.386;2023-04-25T11:11:18;5.35;;;0.95;;
70806;SDS011;58882;52.170;5.386;2023-04-25T11:13:48;4.15;;;1.10;;
70806;SDS011;58882;52.170;5.386;2023-04-25T11:16:16;4.88;;;1.30;;
70806;SDS011;58882;52.170;5.386;2023-04-25T11:18:53;6.72;;;1.50;;
70806;SDS011;58882;52.170;5.386;2023-04-25T11:21:24;6.13;;;1.10;;
70806;SDS011;58882;52.170;5.386;2023-04-25T11:23:54;3.78;;;1.15;;
70806;SDS011;58882;52.170;5.386;2023-04-25T11:26:24;4.60;;;1.10;;
70806;SDS011;58882;52.170;5.386;2023-04-25T11:28:52;5.13;;;1.20;;
70806;SDS011;58882;52.170;5.386;2023-04-25T11:31:24;4.13;;;1.10;;
70806;SDS011;58882;52.170;5.386;2023-04-25T11:33:53;5.05;;;1.10;;
70806;SDS011;58882;52.170;5.386;2023-04-25T11:36:22;4.75;;;1.10;;
70806;SDS011;58882;52.170;5.386;2023-04-25T11:38:50;4.72;;;1.10;;
70806;SDS011;58882;52.170;5.386;2023-04-25T11:41:18;5.60;;;1.10;;
70806;SDS011;58882;52.170;5.386;2023-04-25T11:43:48;5.15;;;1.00;;
70806;SDS011;58882;52.170;5.386;2023-04-25T11:46:16;5.43;;;1.15;;
70806;SDS011;58882;52.170;5.386;2023-04-25T11:48:43;7.03;;;1.20;;
70806;SDS011;58882;52.170;5.386;2023-04-25T11:51:10;4.75;;;1.00;;
70806;SDS011;58882;52.170;5.386;2023-04-25T11:53:40;4.97;;;1.23;;
70806;SDS011;58882;52.170;5.386;2023-04-25T11:56:09;4.47;;;1.20;;
70806;SDS011;58882;52.170;5.386;2023-04-25T12:01:25;6.45;;;1.10;;
70806;SDS011;58882;52.170;5.386;2023-04-25T12:06:43;4.72;;;1.25;;
70806;SDS011;58882;52.170;5.386;2023-04-25T12:09:14;6.25;;;1.35;;
70806;SDS011;58882;52.170;5.386;2023-04-25T12:11:45;5.07;;;1.20;;
70806;SDS011;58882;52.170;5.386;2023-04-25T12:14:23;6.75;;;1.33;;
70806;SDS011;58882;52.170;5.386;2023-04-25T12:16:54;5.57;;;1.10;;
70806;SDS011;58882;52.170;5.386;2023-04-25T12:19:23;6.25;;;1.30;;
70806;SDS011;58882;52.170;5.386;2023-04-25T12:21:51;6.60;;;0.98;;
70806;SDS011;58882;52.170;5.386;2023-04-25T12:24:25;3.28;;;0.82;;
70806;SDS011;58882;52.170;5.386;2023-04-25T12:27:03;6.97;;;0.90;;
70806;SDS011;58882;52.170;5.386;2023-04-25T12:29:32;5.10;;;1.00;;
70806;SDS011;58882;52.170;5.386;2023-04-25T12:32:14;9.00;;;1.23;;
70806;SDS011;58882;52.170;5.386;2023-04-25T12:34:41;4.22;;;1.02;;
70806;SDS011;58882;52.170;5.386;2023-04-25T12:37:08;3.33;;;0.90;;
70806;SDS011;58882;52.170;5.386;2023-04-25T12:39:35;8.73;;;0.95;;
70806;SDS011;58882;52.170;5.386;2023-04-25T12:42:02;3.83;;;1.00;;
70806;SDS011;58882;52.170;5.386;2023-04-25T12:44:33;5.15;;;0.98;;
70806;SDS011;58882;52.170;5.386;2023-04-25T12:47:00;6.60;;;0.85;;
70806;SDS011;58882;52.170;5.386;2023-04-25T12:49:27;3.83;;;1.02;;
70806;SDS011;58882;52.170;5.386;2023-04-25T12:51:54;4.18;;;1.15;;
70806;SDS011;58882;52.170;5.386;2023-04-25T12:54:21;4.55;;;1.08;;
70806;SDS011;58882;52.170;5.386;2023-04-25T12:56:48;4.47;;;1.00;;
70806;SDS011;58882;52.170;5.386;2023-04-25T12:59:16;2.95;;;0.90;;
70806;SDS011;58882;52.170;5.386;2023-04-25T13:01:43;6.97;;;1.05;;
70806;SDS011;58882;52.170;5.386;2023-04-25T13:09:05;2.53;;;0.80;;
70806;SDS011;58882;52.170;5.386;2023-04-25T13:11:33;3.03;;;0.85;;
70806;SDS011;58882;52.170;5.386;2023-04-25T13:14:00;3.20;;;0.90;;
70806;SDS011;58882;52.170;5.386;2023-04-25T13:16:27;5.75;;;1.10;;
70806;SDS011;58882;52.170;5.386;2023-04-25T13:18:55;6.18;;;1.30;;
70806;SDS011;58882;52.170;5.386;2023-04-25T13:21:22;2.67;;;1.00;;
70806;SDS011;58882;52.170;5.386;2023-04-25T13:23:49;3.65;;;1.00;;
70806;SDS011;58882;52.170;5.386;2023-04-25T13:26:17;3.72;;;1.00;;
70806;SDS011;58882;52.170;5.386;2023-04-25T13:28:44;4.25;;;1.08;;
70806;SDS011;58882;52.170;5.386;2023-04-25T13:31:11;6.20;;;1.08;;
70806;SDS011;58882;52.170;5.386;2023-04-25T13:33:37;4.80;;;1.17;;
70806;SDS011;58882;52.170;5.386;2023-04-25T13:36:04;5.28;;;1.10;;
70806;SDS011;58882;52.170;5.386;2023-04-25T13:38:31;2.95;;;0.90;;
70806;SDS011;58882;52.170;5.386;2023-04-25T13:40:58;3.03;;;0.80;;
70806;SDS011;58882;52.170;5.386;2023-04-25T13:43:27;4.25;;;1.05;;
70806;SDS011;58882;52.170;5.386;2023-04-25T13:45:53;5.60;;;1.45;;
70806;SDS011;58882;52.170;5.386;2023-04-25T13:48:20;4.95;;;1.20;;
70806;SDS011;58882;52.170;5.386;2023-04-25T13:50:48;5.38;;;1.20;;
70806;SDS011;58882;52.170;5.386;2023-04-25T13:53:15;4.68;;;1.10;;
70806;SDS011;58882;52.170;5.386;2023-04-25T13:55:42;6.32;;;1.20;;
70806;SDS011;58882;52.170;5.386;2023-04-25T13:58:09;6.15;;;1.00;;
70806;SDS011;58882;52.170;5.386;2023-04-25T14:00:37;6.28;;;1.25;;
70806;SDS011;58882;52.170;5.386;2023-04-25T14:03:06;4.38;;;1.30;;
70806;SDS011;58882;52.170;5.386;2023-04-25T14:05:34;8.15;;;1.42;;
70806;SDS011;58882;52.170;5.386;2023-04-25T14:08:04;3.17;;;1.50;;
70806;SDS011;58882;52.170;5.386;2023-04-25T14:10:33;5.30;;;1.60;;
70806;SDS011;58882;52.170;5.386;2023-04-25T14:13:01;6.35;;;1.30;;
70806;SDS011;58882;52.170;5.386;2023-04-25T14:15:30;5.53;;;1.27;;
70806;SDS011;58882;52.170;5.386;2023-04-25T14:17:59;7.70;;;1.30;;
70806;SDS011;58882;52.170;5.386;2023-04-25T14:20:26;6.30;;;1.23;;
70806;SDS011;58882;52.170;5.386;2023-04-25T14:22:54;6.38;;;1.10;;
70806;SDS011;58882;52.170;5.386;2023-04-25T14:25:22;5.18;;;1.20;;
70806;SDS011;58882;52.170;5.386;2023-04-25T14:27:49;4.55;;;1.10;;
70806;SDS011;58882;52.170;5.386;2023-04-25T14:30:20;3.85;;;1.08;;
70806;SDS011;58882;52.170;5.386;2023-04-25T14:32:48;5.90;;;1.10;;
70806;SDS011;58882;52.170;5.386;2023-04-25T14:35:16;4.25;;;1.10;;
70806;SDS011;58882;52.170;5.386;2023-04-25T14:37:43;5.45;;;1.40;;
70806;SDS011;58882;52.170;5.386;2023-04-25T14:40:10;7.28;;;1.30;;
70806;SDS011;58882;52.170;5.386;2023-04-25T14:42:39;5.28;;;1.10;;
70806;SDS011;58882;52.170;5.386;2023-04-25T14:45:06;6.28;;;1.20;;
70806;SDS011;58882;52.170;5.386;2023-04-25T14:47:37;5.03;;;1.15;;
70806;SDS011;58882;52.170;5.386;2023-04-25T14:50:05;4.35;;;1.20;;
70806;SDS011;58882;52.170;5.386;2023-04-25T14:55:00;5.68;;;1.23;;
70806;SDS011;58882;52.170;5.386;2023-04-25T14:57:31;4.30;;;0.93;;
70806;SDS011;58882;52.170;5.386;2023-04-25T14:59:58;5.07;;;1.10;;
70806;SDS011;58882;52.170;5.386;2023-04-25T15:02:25;6.72;;;1.23;;
70806;SDS011;58882;52.170;5.386;2023-04-25T15:04:53;4.25;;;0.85;;
70806;SDS011;58882;52.170;5.386;2023-04-25T15:07:21;5.65;;;1.25;;
70806;SDS011;58882;52.170;5.386;2023-04-25T15:09:48;2.30;;;1.00;;
70806;SDS011;58882;52.170;5.386;2023-04-25T15:12:15;5.18;;;1.13;;
70806;SDS011;58882;52.170;5.386;2023-04-25T15:14:42;4.68;;;1.02;;
70806;SDS011;58882;52.170;5.386;2023-04-25T15:17:09;3.45;;;1.00;;
70806;SDS011;58882;52.170;5.386;2023-04-25T15:19:35;8.95;;;1.25;;
70806;SDS011;58882;52.170;5.386;2023-04-25T15:22:02;2.03;;;0.93;;
70806;SDS011;58882;52.170;5.386;2023-04-25T15:24:29;7.03;;;1.30;;
70806;SDS011;58882;52.170;5.386;2023-04-25T15:26:56;6.80;;;1.20;;
70806;SDS011;58882;52.170;5.386;2023-04-25T15:29:24;7.05;;;1.23;;
70806;SDS011;58882;52.170;5.386;2023-04-25T15:31:52;6.55;;;1.30;;
70806;SDS011;58882;52.170;5.386;2023-04-25T15:34:19;5.00;;;1.10;;